sensor_id;sensor_type;location;lat;lon;timestamp;pressure;altitude;pressure_sealevel;temperature;humidity
49055;BME280;35405;52.344;14.530;2024-02-21T00:01:58;101507.75;;;8.74;92.01
49055;BME280;35405;52.344;14.530;2024-02-21T00:04:23;101511.22;;;8.76;91.59
49055;BME280;35405;52.344;14.530;2024-02-21T00:06:49;101498.19;;;8.79;92.05
49055;BME280;35405;52.344;14.530;2024-02-21T00:09:14;101485.09;;;8.67;91.54
49055;BME280;35405;52.344;14.530;2024-02-21T00:11:39;101497.28;;;8.66;92.04
49055;BME280;35405;52.344;14.530;2024-02-21T00:14:04;101486.84;;;8.66;92.40
49055;BME280;35405;52.344;14.530;2024-02-21T00:16:29;101485.13;;;8.61;92.05
49055;BME280;35405;52.344;14.530;2024-02-21T00:18:55;101486.84;;;8.66;92.51
49055;BME280;35405;52.344;14.530;2024-02-21T00:21:20;101486.84;;;8.72;92.19
49055;BME280;35405;52.344;14.530;2024-02-21T00:23:45;101482.53;;;8.74;92.52
49055;BME280;35405;52.344;14.530;2024-02-21T00:26:15;101479.03;;;8.66;92.04
49055;BME280;35405;52.344;14.530;2024-02-21T00:28:41;101480.75;;;8.64;92.17
49055;BME280;35405;52.344;14.530;2024-02-21T00:31:06;101473.81;;;8.62;92.57
49055;BME280;35405;52.344;14.530;2024-02-21T00:33:31;101469.47;;;8.73;92.83
49055;BME280;35405;52.344;14.530;2024-02-21T00:35:56;101467.72;;;8.70;92.31
49055;BME280;35405;52.344;14.530;2024-02-21T00:38:22;101467.72;;;8.61;92.26
49055;BME280;35405;52.344;14.530;2024-02-21T00:40:47;101462.50;;;8.63;92.36
49055;BME280;35405;52.344;14.530;2024-02-21T00:43:12;101459.00;;;8.58;92.49
49055;BME280;35405;52.344;14.530;2024-02-21T00:45:37;101458.16;;;8.54;92.36
49055;BME280;35405;52.344;14.530;2024-02-21T00:48:03;101452.06;;;8.55;92.36
49055;BME280;35405;52.344;14.530;2024-02-21T00:50:28;101452.94;;;8.57;92.74
49055;BME280;35405;52.344;14.530;2024-02-21T00:52:53;101459.84;;;8.52;92.40
49055;BME280;35405;52.344;14.530;2024-02-21T00:55:19;101449.44;;;8.55;92.64
49055;BME280;35405;52.344;14.530;2024-02-21T00:57:44;101450.34;;;8.60;92.86
49055;BME280;35405;52.344;14.530;2024-02-21T01:00:09;101439.03;;;8.55;92.39
49055;BME280;35405;52.344;14.530;2024-02-21T01:02:35;101436.38;;;8.44;92.40
49055;BME280;35405;52.344;14.530;2024-02-21T01:05:00;101439.00;;;8.47;92.85
49055;BME280;35405;52.344;14.530;2024-02-21T01:07:26;101438.13;;;8.50;93.13
49055;BME280;35405;52.344;14.530;2024-02-21T01:09:51;101437.28;;;8.54;93.23
49055;BME280;35405;52.344;14.530;2024-02-21T01:12:17;101432.03;;;8.51;92.64
49055;BME280;35405;52.344;14.530;2024-02-21T01:14:42;101426.81;;;8.51;92.92
49055;BME280;35405;52.344;14.530;2024-02-21T01:17:08;101426.84;;;8.59;93.34
49055;BME280;35405;52.344;14.530;2024-02-21T01:19:33;101414.69;;;8.62;93.20
49055;BME280;35405;52.344;14.530;2024-02-21T01:21:58;101419.88;;;8.50;92.53
49055;BME280;35405;52.344;14.530;2024-02-21T01:24:24;101409.44;;;8.58;92.89
49055;BME280;35405;52.344;14.530;2024-02-21T01:26:49;101405.13;;;8.63;93.14
49055;BME280;35405;52.344;14.530;2024-02-21T01:29:14;101405.09;;;8.60;92.69
49055;BME280;35405;52.344;14.530;2024-02-21T01:31:39;101397.28;;;8.58;93.24
49055;BME280;35405;52.344;14.530;2024-02-21T01:34:04;101397.28;;;8.64;93.11
49055;BME280;35405;52.344;14.530;2024-02-21T01:36:30;101394.69;;;8.69;93.41
49055;BME280;35405;52.344;14.530;2024-02-21T01:38:55;101385.09;;;8.66;93.03
49055;BME280;35405;52.344;14.530;2024-02-21T01:41:20;101389.47;;;8.72;92.96
49055;BME280;35405;52.344;14.530;2024-02-21T01:43:45;101386.88;;;8.67;92.73
49055;BME280;35405;52.344;14.530;2024-02-21T01:46:10;101394.66;;;8.60;92.78
49055;BME280;35405;52.344;14.530;2024-02-21T01:48:36;101390.31;;;8.57;92.70
49055;BME280;35405;52.344;14.530;2024-02-21T01:51:01;101387.72;;;8.56;92.69
49055;BME280;35405;52.344;14.530;2024-02-21T01:53:36;101380.78;;;8.70;93.31
49055;BME280;35405;52.344;14.530;2024-02-21T01:56:02;101381.66;;;8.61;92.58
49055;BME280;35405;52.344;14.530;2024-02-21T01:58:30;101379.91;;;8.60;93.07
49055;BME280;35405;52.344;14.530;2024-02-21T02:00:56;101376.44;;;8.53;92.97
49055;BME280;35405;52.344;14.530;2024-02-21T02:03:21;101374.69;;;8.54;93.10
49055;BME280;35405;52.344;14.530;2024-02-21T02:05:47;101369.47;;;8.54;92.99
49055;BME280;35405;52.344;14.530;2024-02-21T02:08:13;101366.88;;;8.60;93.36
49055;BME280;35405;52.344;14.530;2024-02-21T02:10:39;101368.59;;;8.60;93.04
49055;BME280;35405;52.344;14.530;2024-02-21T02:13:05;101365.97;;;8.52;92.73
49055;BME280;35405;52.344;14.530;2024-02-21T02:18:08;101354.66;;;8.59;93.12
49055;BME280;35405;52.344;14.530;2024-02-21T02:20:33;101356.41;;;8.57;93.08
49055;BME280;35405;52.344;14.530;2024-02-21T02:22:59;101355.56;;;8.63;92.83
49055;BME280;35405;52.344;14.530;2024-02-21T02:25:25;101347.75;;;8.61;93.06
49055;BME280;35405;52.344;14.530;2024-02-21T02:27:51;101341.63;;;8.65;92.64
49055;BME280;35405;52.344;14.530;2024-02-21T02:30:17;101346.88;;;8.62;92.82
49055;BME280;35405;52.344;14.530;2024-02-21T02:32:45;101346.88;;;8.62;93.03
49055;BME280;35405;52.344;14.530;2024-02-21T02:35:11;101339.91;;;8.58;92.97
49055;BME280;35405;52.344;14.530;2024-02-21T02:37:36;101336.44;;;8.61;92.88
49055;BME280;35405;52.344;14.530;2024-02-21T02:40:03;101339.91;;;8.63;92.75
49055;BME280;35405;52.344;14.530;2024-02-21T02:42:28;101337.28;;;8.64;93.00
49055;BME280;35405;52.344;14.530;2024-02-21T02:44:54;101332.94;;;8.63;92.69
49055;BME280;35405;52.344;14.530;2024-02-21T02:47:19;101331.19;;;8.65;92.66
49055;BME280;35405;52.344;14.530;2024-02-21T02:49:44;101331.22;;;8.64;92.37
49055;BME280;35405;52.344;14.530;2024-02-21T02:52:10;101327.72;;;8.69;92.41
49055;BME280;35405;52.344;14.530;2024-02-21T02:54:35;101324.25;;;8.72;92.23
49055;BME280;35405;52.344;14.530;2024-02-21T02:57:00;101319.91;;;8.75;92.18
49055;BME280;35405;52.344;14.530;2024-02-21T02:59:25;101321.66;;;8.69;91.92
49055;BME280;35405;52.344;14.530;2024-02-21T03:01:50;101315.56;;;8.71;91.99
49055;BME280;35405;52.344;14.530;2024-02-21T03:04:16;101317.28;;;8.69;92.15
49055;BME280;35405;52.344;14.530;2024-02-21T03:06:41;101312.97;;;8.62;91.95
49055;BME280;35405;52.344;14.530;2024-02-21T03:09:06;101312.06;;;8.66;92.21
49055;BME280;35405;52.344;14.530;2024-02-21T03:11:33;101305.13;;;8.64;92.07
49055;BME280;35405;52.344;14.530;2024-02-21T03:13:58;101299.03;;;8.59;91.92
49055;BME280;35405;52.344;14.530;2024-02-21T03:16:24;101303.38;;;8.52;91.55
49055;BME280;35405;52.344;14.530;2024-02-21T03:18:49;101307.75;;;8.48;91.72
49055;BME280;35405;52.344;14.530;2024-02-21T03:21:15;101300.78;;;8.55;92.35
49055;BME280;35405;52.344;14.530;2024-02-21T03:23:40;101298.16;;;8.57;92.33
49055;BME280;35405;52.344;14.530;2024-02-21T03:26:05;101292.97;;;8.61;92.59
49055;BME280;35405;52.344;14.530;2024-02-21T03:28:30;101295.56;;;8.63;92.58
49055;BME280;35405;52.344;14.530;2024-02-21T03:30:55;101302.50;;;8.65;92.32
49055;BME280;35405;52.344;14.530;2024-02-21T03:33:21;101295.56;;;8.67;92.25
49055;BME280;35405;52.344;14.530;2024-02-21T03:35:47;101299.03;;;8.59;91.77
49055;BME280;35405;52.344;14.530;2024-02-21T03:38:13;101296.44;;;8.57;92.38
49055;BME280;35405;52.344;14.530;2024-02-21T03:40:38;101298.16;;;8.58;92.42
49055;BME280;35405;52.344;14.530;2024-02-21T03:43:03;101295.56;;;8.58;92.72
49055;BME280;35405;52.344;14.530;2024-02-21T03:45:28;101293.81;;;8.57;92.55
49055;BME280;35405;52.344;14.530;2024-02-21T03:47:53;101294.69;;;8.59;92.61
49055;BME280;35405;52.344;14.530;2024-02-21T03:50:19;101286.88;;;8.55;92.74
49055;BME280;35405;52.344;14.530;2024-02-21T03:52:44;101279.06;;;8.56;92.42
49055;BME280;35405;52.344;14.530;2024-02-21T03:55:09;101281.66;;;8.58;92.93
49055;BME280;35405;52.344;14.530;2024-02-21T03:57:34;101279.06;;;8.50;92.57
49055;BME280;35405;52.344;14.530;2024-02-21T04:00:00;101276.44;;;8.50;92.66
49055;BME280;35405;52.344;14.530;2024-02-21T04:02:25;101279.06;;;8.53;92.94
49055;BME280;35405;52.344;14.530;2024-02-21T04:04:50;101267.75;;;8.54;92.92
49055;BME280;35405;52.344;14.530;2024-02-21T04:07:15;101271.22;;;8.48;92.18
49055;BME280;35405;52.344;14.530;2024-02-21T04:09:40;101269.50;;;8.47;92.62
49055;BME280;35405;52.344;14.530;2024-02-21T04:12:07;101269.50;;;8.47;92.53
49055;BME280;35405;52.344;14.530;2024-02-21T04:14:33;101266.03;;;8.47;92.45
49055;BME280;35405;52.344;14.530;2024-02-21T04:16:59;101262.56;;;8.46;92.63
49055;BME280;35405;52.344;14.530;2024-02-21T04:19:24;101259.94;;;8.48;92.83
49055;BME280;35405;52.344;14.530;2024-02-21T04:21:49;101252.13;;;8.36;92.49
49055;BME280;35405;52.344;14.530;2024-02-21T04:24:14;101255.56;;;8.29;92.56
49055;BME280;35405;52.344;14.530;2024-02-21T04:26:40;101252.94;;;8.16;92.40
49055;BME280;35405;52.344;14.530;2024-02-21T04:29:05;101236.44;;;8.08;92.51
49055;BME280;35405;52.344;14.530;2024-02-21T04:31:32;101246.88;;;8.08;91.93
49055;BME280;35405;52.344;14.530;2024-02-21T04:33:57;101246.00;;;8.09;92.75
49055;BME280;35405;52.344;14.530;2024-02-21T04:36:22;101235.56;;;8.03;91.77
49055;BME280;35405;52.344;14.530;2024-02-21T04:38:47;101238.19;;;7.97;92.09
49055;BME280;35405;52.344;14.530;2024-02-21T04:41:12;101236.44;;;7.99;92.36
49055;BME280;35405;52.344;14.530;2024-02-21T04:43:38;101227.75;;;7.95;91.89
49055;BME280;35405;52.344;14.530;2024-02-21T04:46:04;101216.47;;;8.01;92.10
49055;BME280;35405;52.344;14.530;2024-02-21T04:48:29;101214.72;;;8.03;92.21
49055;BME280;35405;52.344;14.530;2024-02-21T04:50:54;101215.59;;;7.97;91.95
49055;BME280;35405;52.344;14.530;2024-02-21T04:53:19;101206.03;;;8.01;92.39
49055;BME280;35405;52.344;14.530;2024-02-21T04:55:45;101212.13;;;8.06;92.77
49055;BME280;35405;52.344;14.530;2024-02-21T04:58:10;101204.28;;;8.03;91.77
49055;BME280;35405;52.344;14.530;2024-02-21T05:00:35;101211.28;;;8.04;92.02
49055;BME280;35405;52.344;14.530;2024-02-21T05:03:00;101211.25;;;8.10;91.95
49055;BME280;35405;52.344;14.530;2024-02-21T05:05:25;101195.59;;;8.10;91.93
49055;BME280;35405;52.344;14.530;2024-02-21T05:07:51;101200.84;;;8.12;92.45
49055;BME280;35405;52.344;14.530;2024-02-21T05:10:16;101196.47;;;8.09;92.19
49055;BME280;35405;52.344;14.530;2024-02-21T05:12:42;101192.13;;;8.08;92.07
49055;BME280;35405;52.344;14.530;2024-02-21T05:15:08;101176.50;;;8.07;92.21
49055;BME280;35405;52.344;14.530;2024-02-21T05:17:33;101167.81;;;8.03;92.61
49055;BME280;35405;52.344;14.530;2024-02-21T05:19:58;101160.00;;;8.08;92.37
49055;BME280;35405;52.344;14.530;2024-02-21T05:22:23;101164.34;;;8.10;92.54
49055;BME280;35405;52.344;14.530;2024-02-21T05:24:48;101139.16;;;8.08;92.24
49055;BME280;35405;52.344;14.530;2024-02-21T05:27:14;101157.41;;;7.97;92.10
49055;BME280;35405;52.344;14.530;2024-02-21T05:29:39;101166.97;;;7.93;92.57
49055;BME280;35405;52.344;14.530;2024-02-21T05:32:04;101149.56;;;7.95;93.25
49055;BME280;35405;52.344;14.530;2024-02-21T05:34:29;101161.75;;;7.90;92.80
49055;BME280;35405;52.344;14.530;2024-02-21T05:36:55;101163.47;;;7.93;92.87
49055;BME280;35405;52.344;14.530;2024-02-21T05:39:20;101170.44;;;7.98;92.93
49055;BME280;35405;52.344;14.530;2024-02-21T05:41:47;101178.22;;;8.03;92.81
49055;BME280;35405;52.344;14.530;2024-02-21T05:44:13;101188.69;;;8.12;92.98
49055;BME280;35405;52.344;14.530;2024-02-21T05:46:38;101182.59;;;8.12;92.69
49055;BME280;35405;52.344;14.530;2024-02-21T05:49:03;101174.78;;;8.18;93.06
49055;BME280;35405;52.344;14.530;2024-02-21T05:51:32;101169.53;;;8.16;92.70
49055;BME280;35405;52.344;14.530;2024-02-21T05:53:57;101174.75;;;8.25;93.14
49055;BME280;35405;52.344;14.530;2024-02-21T05:56:22;101170.41;;;8.34;92.90
49055;BME280;35405;52.344;14.530;2024-02-21T05:58:47;101178.22;;;8.31;92.51
49055;BME280;35405;52.344;14.530;2024-02-21T06:01:13;101174.75;;;8.38;92.88
49055;BME280;35405;52.344;14.530;2024-02-21T06:03:38;101166.09;;;8.39;92.78
49055;BME280;35405;52.344;14.530;2024-02-21T06:06:03;101168.69;;;8.37;93.02
49055;BME280;35405;52.344;14.530;2024-02-21T06:08:29;101166.03;;;8.45;93.16
49055;BME280;35405;52.344;14.530;2024-02-21T06:10:55;101160.00;;;8.40;92.80
49055;BME280;35405;52.344;14.530;2024-02-21T06:13:20;101160.88;;;8.40;92.67
49055;BME280;35405;52.344;14.530;2024-02-21T06:15:49;101155.66;;;8.36;92.70
49055;BME280;35405;52.344;14.530;2024-02-21T06:18:15;101152.19;;;8.40;92.87
49055;BME280;35405;52.344;14.530;2024-02-21T06:20:40;101153.03;;;8.34;92.55
49055;BME280;35405;52.344;14.530;2024-02-21T06:23:06;101142.56;;;8.31;92.96
49055;BME280;35405;52.344;14.530;2024-02-21T06:25:32;101145.22;;;8.28;92.54
49055;BME280;35405;52.344;14.530;2024-02-21T06:27:57;101151.28;;;8.35;93.37
49055;BME280;35405;52.344;14.530;2024-02-21T06:30:22;101151.28;;;8.35;93.16
49055;BME280;35405;52.344;14.530;2024-02-21T06:32:47;101152.16;;;8.38;93.41
49055;BME280;35405;52.344;14.530;2024-02-21T06:35:12;101145.22;;;8.33;92.81
49055;BME280;35405;52.344;14.530;2024-02-21T06:37:38;101148.69;;;8.29;92.62
49055;BME280;35405;52.344;14.530;2024-02-21T06:40:03;101152.19;;;8.35;92.85
49055;BME280;35405;52.344;14.530;2024-02-21T06:42:29;101150.44;;;8.37;92.94
49055;BME280;35405;52.344;14.530;2024-02-21T06:44:54;101153.88;;;8.35;92.93
49055;BME280;35405;52.344;14.530;2024-02-21T06:47:21;101151.28;;;8.30;93.18
49055;BME280;35405;52.344;14.530;2024-02-21T06:49:49;101151.28;;;8.27;92.90
49055;BME280;35405;52.344;14.530;2024-02-21T06:52:16;101139.97;;;8.30;93.62
49055;BME280;35405;52.344;14.530;2024-02-21T06:54:42;101144.34;;;8.35;93.30
49055;BME280;35405;52.344;14.530;2024-02-21T06:57:07;101143.47;;;8.35;93.39
49055;BME280;35405;52.344;14.530;2024-02-21T06:59:32;101138.25;;;8.42;93.66
49055;BME280;35405;52.344;14.530;2024-02-21T07:01:57;101131.28;;;8.49;93.37
49055;BME280;35405;52.344;14.530;2024-02-21T07:04:23;101129.53;;;8.51;93.43
49055;BME280;35405;52.344;14.530;2024-02-21T07:06:48;101127.78;;;8.51;93.19
49055;BME280;35405;52.344;14.530;2024-02-21T07:09:13;101129.50;;;8.52;92.91
49055;BME280;35405;52.344;14.530;2024-02-21T07:11:38;101145.16;;;8.57;93.74
49055;BME280;35405;52.344;14.530;2024-02-21T07:14:04;101139.06;;;8.60;93.77
49055;BME280;35405;52.344;14.530;2024-02-21T07:16:29;101148.66;;;8.50;93.21
49055;BME280;35405;52.344;14.530;2024-02-21T07:18:55;101138.25;;;8.53;93.77
49055;BME280;35405;52.344;14.530;2024-02-21T07:21:20;101142.53;;;8.59;93.60
49055;BME280;35405;52.344;14.530;2024-02-21T07:23:45;101138.13;;;8.73;93.85
49055;BME280;35405;52.344;14.530;2024-02-21T07:26:10;101125.97;;;8.73;93.10
49055;BME280;35405;52.344;14.530;2024-02-21T07:28:35;101140.75;;;8.82;93.09
49055;BME280;35405;52.344;14.530;2024-02-21T07:31:01;101138.94;;;8.87;93.43
49055;BME280;35405;52.344;14.530;2024-02-21T07:33:26;101130.28;;;8.88;93.51
49055;BME280;35405;52.344;14.530;2024-02-21T07:35:51;101131.16;;;8.89;93.25
49055;BME280;35405;52.344;14.530;2024-02-21T07:38:16;101121.50;;;9.00;93.58
49055;BME280;35405;52.344;14.530;2024-02-21T07:40:46;101110.22;;;8.98;93.05
49055;BME280;35405;52.344;14.530;2024-02-21T07:43:12;101122.41;;;8.96;93.30
49055;BME280;35405;52.344;14.530;2024-02-21T07:45:37;101128.47;;;8.98;93.19
49055;BME280;35405;52.344;14.530;2024-02-21T07:48:04;101118.94;;;8.91;92.72
49055;BME280;35405;52.344;14.530;2024-02-21T07:50:30;101121.59;;;8.83;92.74
49055;BME280;35405;52.344;14.530;2024-02-21T07:52:55;101130.22;;;8.93;93.37
49055;BME280;35405;52.344;14.530;2024-02-21T07:55:20;101131.97;;;8.94;93.49
49055;BME280;35405;52.344;14.530;2024-02-21T07:57:45;101137.22;;;8.91;93.49
49055;BME280;35405;52.344;14.530;2024-02-21T08:00:11;101134.59;;;8.92;93.36
49055;BME280;35405;52.344;14.530;2024-02-21T08:02:42;101127.63;;;8.93;92.94
49055;BME280;35405;52.344;14.530;2024-02-21T08:05:08;101131.09;;;8.98;93.52
49055;BME280;35405;52.344;14.530;2024-02-21T08:07:34;101136.31;;;8.95;93.42
49055;BME280;35405;52.344;14.530;2024-02-21T08:09:59;101135.44;;;8.94;93.29
49055;BME280;35405;52.344;14.530;2024-02-21T08:12:24;101138.94;;;8.96;93.32
49055;BME280;35405;52.344;14.530;2024-02-21T08:14:49;101144.16;;;8.96;93.47
49055;BME280;35405;52.344;14.530;2024-02-21T08:17:15;101123.28;;;8.87;93.13
49055;BME280;35405;52.344;14.530;2024-02-21T08:19:40;101114.63;;;8.88;93.47
49055;BME280;35405;52.344;14.530;2024-02-21T08:22:05;101117.19;;;8.91;93.69
49055;BME280;35405;52.344;14.530;2024-02-21T08:24:31;101111.97;;;8.96;93.52
49055;BME280;35405;52.344;14.530;2024-02-21T08:26:56;101106.72;;;8.99;93.54
49055;BME280;35405;52.344;14.530;2024-02-21T08:29:21;101113.69;;;8.97;93.29
49055;BME280;35405;52.344;14.530;2024-02-21T08:31:46;101108.47;;;8.94;93.39
49055;BME280;35405;52.344;14.530;2024-02-21T08:34:12;101099.81;;;8.92;93.30
49055;BME280;35405;52.344;14.530;2024-02-21T08:36:38;101094.53;;;8.99;93.89
49055;BME280;35405;52.344;14.530;2024-02-21T08:39:03;101098.00;;;9.03;93.70
49055;BME280;35405;52.344;14.530;2024-02-21T08:41:32;101099.69;;;9.13;93.82
49055;BME280;35405;52.344;14.530;2024-02-21T08:43:58;101094.34;;;9.28;93.74
49055;BME280;35405;52.344;14.530;2024-02-21T08:46:23;101095.19;;;9.38;94.00
49055;BME280;35405;52.344;14.530;2024-02-21T08:48:49;101100.34;;;9.43;93.71
49055;BME280;35405;52.344;14.530;2024-02-21T08:51:16;101101.97;;;9.56;93.86
49055;BME280;35405;52.344;14.530;2024-02-21T08:53:41;101113.28;;;9.58;93.33
49055;BME280;35405;52.344;14.530;2024-02-21T08:56:06;101106.25;;;9.64;93.55
49055;BME280;35405;52.344;14.530;2024-02-21T08:58:32;101095.81;;;9.68;93.94
49055;BME280;35405;52.344;14.530;2024-02-21T09:00:58;101095.69;;;9.78;94.16
49055;BME280;35405;52.344;14.530;2024-02-21T09:03:23;101091.22;;;9.91;93.47
49055;BME280;35405;52.344;14.530;2024-02-21T09:05:48;101093.75;;;9.99;93.54
49055;BME280;35405;52.344;14.530;2024-02-21T09:08:14;101099.69;;;10.14;93.79
49055;BME280;35405;52.344;14.530;2024-02-21T09:10:39;101108.50;;;10.07;93.02
49055;BME280;35405;52.344;14.530;2024-02-21T09:13:04;101098.91;;;10.06;92.71
49055;BME280;35405;52.344;14.530;2024-02-21T09:15:30;101097.22;;;10.02;92.70
49055;BME280;35405;52.344;14.530;2024-02-21T09:17:55;101096.34;;;10.00;93.01
49055;BME280;35405;52.344;14.530;2024-02-21T09:20:20;101082.31;;;10.12;93.25
49055;BME280;35405;52.344;14.530;2024-02-21T09:22:46;101083.16;;;10.14;92.88
49055;BME280;35405;52.344;14.530;2024-02-21T09:25:11;101079.59;;;10.24;93.28
49055;BME280;35405;52.344;14.530;2024-02-21T09:27:37;101079.59;;;10.24;92.34
49055;BME280;35405;52.344;14.530;2024-02-21T09:30:02;101081.22;;;10.34;91.98
49055;BME280;35405;52.344;14.530;2024-02-21T09:32:29;101084.34;;;10.64;92.46
49055;BME280;35405;52.344;14.530;2024-02-21T09:34:54;101086.75;;;10.82;91.80
49055;BME280;35405;52.344;14.530;2024-02-21T09:37:20;101065.75;;;10.87;90.41
49055;BME280;35405;52.344;14.530;2024-02-21T09:39:45;101068.25;;;10.94;90.44
49055;BME280;35405;52.344;14.530;2024-02-21T09:42:12;101075.22;;;10.95;90.16
49055;BME280;35405;52.344;14.530;2024-02-21T09:44:39;101078.94;;;10.79;89.90
49055;BME280;35405;52.344;14.530;2024-02-21T09:47:09;101072.91;;;10.72;89.96
49055;BME280;35405;52.344;14.530;2024-02-21T09:49:36;101073.13;;;10.57;88.71
49055;BME280;35405;52.344;14.530;2024-02-21T09:52:06;101076.59;;;10.56;87.98
49055;BME280;35405;52.344;14.530;2024-02-21T09:54:32;101065.06;;;10.71;87.78
49055;BME280;35405;52.344;14.530;2024-02-21T09:56:57;101071.03;;;10.82;87.82
49055;BME280;35405;52.344;14.530;2024-02-21T09:59:23;101070.91;;;10.93;88.00
49055;BME280;35405;52.344;14.530;2024-02-21T10:01:49;101066.63;;;10.84;85.27
49055;BME280;35405;52.344;14.530;2024-02-21T10:04:16;101062.38;;;10.79;87.02
49055;BME280;35405;52.344;14.530;2024-02-21T10:06:41;101049.38;;;10.72;87.12
49055;BME280;35405;52.344;14.530;2024-02-21T10:09:06;101060.75;;;10.68;85.94
49055;BME280;35405;52.344;14.530;2024-02-21T10:11:32;101056.06;;;10.92;87.14
49055;BME280;35405;52.344;14.530;2024-02-21T10:14:06;101054.97;;;11.08;87.75
49055;BME280;35405;52.344;14.530;2024-02-21T10:16:31;101063.63;;;11.12;87.87
49055;BME280;35405;52.344;14.530;2024-02-21T10:18:56;101057.41;;;11.19;87.72
49055;BME280;35405;52.344;14.530;2024-02-21T10:21:22;101055.78;;;11.12;86.76
49055;BME280;35405;52.344;14.530;2024-02-21T10:23:50;101060.94;;;11.16;87.44
49055;BME280;35405;52.344;14.530;2024-02-21T10:26:19;101070.75;;;11.02;86.01
49055;BME280;35405;52.344;14.530;2024-02-21T10:28:44;101068.09;;;11.07;88.00
49055;BME280;35405;52.344;14.530;2024-02-21T10:31:21;101056.09;;;10.90;86.86
49055;BME280;35405;52.344;14.530;2024-02-21T10:33:53;101055.28;;;10.84;86.06
49055;BME280;35405;52.344;14.530;2024-02-21T10:36:18;101065.69;;;10.90;85.02
49055;BME280;35405;52.344;14.530;2024-02-21T10:38:44;101068.97;;;11.04;85.47
49055;BME280;35405;52.344;14.530;2024-02-21T10:41:09;101072.44;;;11.06;87.05
49055;BME280;35405;52.344;14.530;2024-02-21T10:43:39;101058.47;;;11.06;87.25
49055;BME280;35405;52.344;14.530;2024-02-21T10:46:07;101055.91;;;11.03;87.42
49055;BME280;35405;52.344;14.530;2024-02-21T10:48:44;101052.34;;;11.08;87.55
49055;BME280;35405;52.344;14.530;2024-02-21T11:14:27;101044.03;;;11.37;81.12
49055;BME280;35405;52.344;14.530;2024-02-21T11:16:53;101036.88;;;11.47;78.60
49055;BME280;35405;52.344;14.530;2024-02-21T11:21:43;101023.00;;;11.93;81.88
49055;BME280;35405;52.344;14.530;2024-02-21T11:24:08;101001.28;;;11.86;80.33
49055;BME280;35405;52.344;14.530;2024-02-21T11:26:36;101003.97;;;11.80;80.03
49055;BME280;35405;52.344;14.530;2024-02-21T11:29:02;101006.34;;;11.95;82.21
49055;BME280;35405;52.344;14.530;2024-02-21T11:31:50;100998.50;;;11.94;81.17
49055;BME280;35405;52.344;14.530;2024-02-21T11:34:16;100993.94;;;12.03;82.12
49055;BME280;35405;52.344;14.530;2024-02-21T11:36:49;100998.13;;;12.12;81.20
49055;BME280;35405;52.344;14.530;2024-02-21T11:39:21;100991.34;;;12.02;80.44
49055;BME280;35405;52.344;14.530;2024-02-21T11:41:47;100972.25;;;11.95;80.82
49055;BME280;35405;52.344;14.530;2024-02-21T11:44:12;100973.38;;;11.82;81.38
49055;BME280;35405;52.344;14.530;2024-02-21T11:46:38;100956.84;;;11.77;79.68
49055;BME280;35405;52.344;14.530;2024-02-21T11:49:03;100958.44;;;11.87;81.71
49055;BME280;35405;52.344;14.530;2024-02-21T11:51:28;100950.31;;;11.98;83.00
49055;BME280;35405;52.344;14.530;2024-02-21T11:53:54;100951.09;;;12.03;80.58
49055;BME280;35405;52.344;14.530;2024-02-21T11:56:19;100953.44;;;12.17;81.62
49055;BME280;35405;52.344;14.530;2024-02-21T11:58:48;100943.94;;;12.13;80.17
49055;BME280;35405;52.344;14.530;2024-02-21T12:01:13;100938.72;;;12.09;76.53
49055;BME280;35405;52.344;14.530;2024-02-21T12:03:39;100938.41;;;12.26;77.72
49055;BME280;35405;52.344;14.530;2024-02-21T12:06:06;100941.59;;;12.41;80.31
49055;BME280;35405;52.344;14.530;2024-02-21T12:08:41;100938.59;;;12.56;78.73
49055;BME280;35405;52.344;14.530;2024-02-21T12:11:19;100935.00;;;12.60;77.85
49055;BME280;35405;52.344;14.530;2024-02-21T12:13:45;100942.88;;;12.60;78.46
49055;BME280;35405;52.344;14.530;2024-02-21T12:16:10;100932.41;;;12.58;79.18
49055;BME280;35405;52.344;14.530;2024-02-21T12:18:35;100923.91;;;12.47;76.82
49055;BME280;35405;52.344;14.530;2024-02-21T12:21:01;100922.31;;;12.42;77.31
49055;BME280;35405;52.344;14.530;2024-02-21T12:23:29;100919.44;;;12.52;76.47
49055;BME280;35405;52.344;14.530;2024-02-21T12:25:54;100921.50;;;12.77;79.70
49055;BME280;35405;52.344;14.530;2024-02-21T12:28:20;100915.06;;;12.88;80.60
49055;BME280;35405;52.344;14.530;2024-02-21T12:30:46;100912.56;;;12.84;79.69
49055;BME280;35405;52.344;14.530;2024-02-21T12:33:12;100908.19;;;12.84;80.14
49055;BME280;35405;52.344;14.530;2024-02-21T12:35:39;100907.41;;;12.79;73.01
49055;BME280;35405;52.344;14.530;2024-02-21T12:38:04;100906.47;;;12.82;73.53
49055;BME280;35405;52.344;14.530;2024-02-21T12:40:29;100905.22;;;12.98;74.06
49055;BME280;35405;52.344;14.530;2024-02-21T12:42:57;100894.41;;;13.09;77.11
49055;BME280;35405;52.344;14.530;2024-02-21T12:45:23;100885.50;;;12.80;77.47
49055;BME280;35405;52.344;14.530;2024-02-21T12:47:48;100879.19;;;12.52;76.78
49055;BME280;35405;52.344;14.530;2024-02-21T12:50:13;100879.34;;;12.46;79.18
49055;BME280;35405;52.344;14.530;2024-02-21T12:52:40;100880.00;;;12.55;79.77
49055;BME280;35405;52.344;14.530;2024-02-21T12:55:05;100869.56;;;12.52;76.45
49055;BME280;35405;52.344;14.530;2024-02-21T12:57:30;100876.72;;;12.46;75.86
49055;BME280;35405;52.344;14.530;2024-02-21T12:59:56;100870.72;;;12.41;76.95
49055;BME280;35405;52.344;14.530;2024-02-21T13:02:21;100872.53;;;12.37;76.80
49055;BME280;35405;52.344;14.530;2024-02-21T13:04:46;100866.66;;;12.27;75.21
49055;BME280;35405;52.344;14.530;2024-02-21T13:07:11;100861.78;;;12.10;76.22
49055;BME280;35405;52.344;14.530;2024-02-21T13:09:36;100850.63;;;12.01;76.83